This demonstration page uses our WeatherBlox Daily Observations layout. Learn more.

41.55636, -103.73856

Hourly Observations for May 29, 2018

Temp ( °F °C ) Dew Point ( °F °C ) Humidity (%) Winds ( mph kmh ) Pressure ( in mb ) Visibility ( mi km ) Precip ( " mm )
12:53 am 00:53 Clear 56 13.3 56 13.3 100 100 SW 5 7 29.8 1009 10 16.09344 0 0
1:53 am 01:53 Clear 54 12.2 54 12.2 100 100 SSE 8 13 29.8 1009 10 16.09344 0 0
2:53 am 02:53 Partly Cloudy 54 12.2 53 11.7 97 97 S 5 7 29.8 1009 10 16.09344 0 0
3:53 am 03:53 Cloudy 56 13.3 53 11.7 90 90 Calm 29.8 1009 10 16.09344 0 0
4:53 am 04:53 Cloudy 55 12.8 53 11.7 93 93 WNW 6 9 29.8 1009 10 16.09344 0 0
5:53 am 05:53 Cloudy 56 13.3 54 12.2 93 93 W 3 6 29.8 1009 10 16.09344 0 0
6:53 am 06:53 Mostly Sunny 58 14.4 55 12.8 90 90 S 5 7 29.77 1008 10 16.09344 0 0
7:53 am 07:53 Sunny 62 16.7 55 12.8 78 78 W 10 17 29.8 1009 10 16.09344 0 0
8:53 am 08:53 Mostly Cloudy 65 18.3 55 12.8 70 70 W 13 20 29.8 1009 10 16.09344 0 0
9:53 am 09:53 Cloudy 62 16.7 55 12.8 78 78 W 8 13 29.8 1009 10 16.09344 0 0
10:53 am 10:53 Cloudy with Light Rain 62 16.7 51 10.6 67 67 W 18 30 29.8 1009 10 16.09344 0.001 0.001
11:53 am 11:53 Cloudy 61 16.1 53 11.7 75 75 W 14 22 29.8 1009 10 16.09344 0.001 0.001
12:53 pm 12:53 Mostly Cloudy with Light Rain 62 16.7 55 12.8 78 78 W 15 24 29.8 1009 10 16.09344 0.001 0.001
1:53 pm 13:53 Mostly Sunny 64 17.8 55 12.8 73 73 W 20 31 29.77 1008 10 16.09344 0.001 0.001
2:53 pm 14:53 Mostly Cloudy 64 17.8 55 12.8 73 73 WNW 18 30 29.77 1008 10 16.09344 0 0
3:53 pm 15:53 Partly Cloudy 64 17.8 54 12.2 70 70 W 23 37 29.77 1008 10 16.09344 0 0
4:53 pm 16:53 Partly Cloudy 66 18.9 53 11.7 63 63 WNW 24 39 29.74 1007 10 16.09344 0 0
5:53 pm 17:53 Sunny 66 18.9 52 11.1 61 61 WNW 22 35 29.71 1006 10 16.09344 0 0
6:53 pm 18:53 Sunny 65 18.3 50 10 59 59 WNW 14 22 29.71 1006 10 16.09344 0 0
7:53 pm 19:53 Partly Cloudy 63 17.2 51 10.6 65 65 WNW 6 9 29.71 1006 10 16.09344 0 0
8:53 pm 20:53 Mostly Cloudy 61 16.1 53 11.7 75 75 W 7 11 29.71 1006 10 16.09344 0 0
9:53 pm 21:53 Mostly Cloudy 59 15 52 11.1 78 78 W 8 13 29.77 1008 10 16.09344 0 0
10:53 pm 22:53 Mostly Cloudy 61 16.1 52 11.1 72 72 W 10 17 29.74 1007 10 16.09344 0 0
11:53 pm 23:53 Mostly Clear 59 15 52 11.1 78 78 WNW 13 20 29.77 1008 10 16.09344 0 0

Powered by AerisWeather